createdAt,value
2018-03-23T00:00:35.945Z,31.87
2018-03-23T00:03:02.014Z,30.90
2018-03-23T00:05:28.041Z,26.73
2018-03-23T00:07:54.043Z,31.43
2018-03-23T00:10:20.094Z,30.30
2018-03-23T00:12:46.122Z,38.50
2018-03-23T00:15:12.170Z,26.70
2018-03-23T00:17:38.297Z,28.37
2018-03-23T00:20:04.290Z,30.00
2018-03-23T00:22:30.237Z,23.70
2018-03-23T00:24:56.288Z,21.40
2018-03-23T00:27:22.362Z,21.73
2018-03-23T00:29:48.335Z,25.13
2018-03-23T00:32:14.301Z,21.90
2018-03-23T00:34:40.301Z,22.87
2018-03-23T00:37:06.369Z,23.90
2018-03-23T00:39:32.696Z,23.00
2018-03-23T00:41:58.721Z,25.57
2018-03-23T00:44:24.736Z,22.67
2018-03-23T00:46:50.737Z,24.70
2018-03-23T00:49:16.785Z,20.37
2018-03-23T00:51:42.782Z,20.20
2018-03-23T00:54:08.803Z,20.33
2018-03-23T00:56:34.794Z,20.10
2018-03-23T00:59:00.834Z,24.37
2018-03-23T01:01:26.897Z,19.53
2018-03-23T01:03:52.918Z,23.30
2018-03-23T01:06:18.931Z,18.33
2018-03-23T01:08:44.941Z,22.60
2018-03-23T01:11:10.894Z,21.60
2018-03-23T01:13:36.898Z,20.20
2018-03-23T01:16:02.852Z,17.73
2018-03-23T01:18:28.857Z,20.60
2018-03-23T01:20:54.903Z,21.53
2018-03-23T01:23:20.902Z,26.13
2018-03-23T01:25:46.934Z,22.67
2018-03-23T01:28:13.029Z,23.63
2018-03-23T01:30:39.028Z,19.23
2018-03-23T01:33:05.021Z,18.00
2018-03-23T01:35:31.042Z,18.67
2018-03-23T01:37:57.064Z,21.00
2018-03-23T01:40:23.071Z,19.40
2018-03-23T01:42:49.144Z,14.97
2018-03-23T01:45:15.246Z,15.60
2018-03-23T01:47:41.278Z,18.23
2018-03-23T01:50:07.301Z,15.10
2018-03-23T01:52:33.350Z,16.93
2018-03-23T01:54:59.299Z,16.33
2018-03-23T01:57:25.343Z,17.37
2018-03-23T02:02:44.635Z,16.80
2018-03-23T02:05:10.605Z,17.50
2018-03-23T02:07:36.625Z,17.43
2018-03-23T02:10:02.658Z,17.23
2018-03-23T02:12:28.688Z,14.53
2018-03-23T02:14:55.130Z,16.70
2018-03-23T02:17:28.313Z,17.73
2018-03-23T02:19:54.369Z,19.97
2018-03-23T02:22:20.409Z,17.33
2018-03-23T02:24:46.462Z,18.77
2018-03-23T02:27:12.464Z,18.50
2018-03-23T02:29:38.511Z,23.33
2018-03-23T02:32:04.549Z,19.67
2018-03-23T02:34:30.554Z,21.53
2018-03-23T02:36:56.553Z,21.37
2018-03-23T02:39:22.622Z,26.07
2018-03-23T02:41:48.651Z,21.67
2018-03-23T02:44:14.793Z,23.27
2018-03-23T02:46:40.839Z,19.87
2018-03-23T02:49:06.846Z,26.23
2018-03-23T02:51:32.851Z,25.10
2018-03-23T02:53:58.867Z,29.50
2018-03-23T02:56:24.891Z,26.57
2018-03-23T02:58:50.918Z,20.00
2018-03-23T03:01:16.924Z,28.00
2018-03-23T03:03:42.965Z,22.47
2018-03-23T03:06:09.061Z,24.00
2018-03-23T03:08:35.053Z,25.40
2018-03-23T03:11:01.086Z,29.57
2018-03-23T03:13:27.139Z,30.30
2018-03-23T03:15:53.172Z,23.60
2018-03-23T03:18:19.186Z,27.60
2018-03-23T03:20:45.258Z,27.10
2018-03-23T03:23:11.221Z,20.57
2018-03-23T03:25:37.236Z,33.27
2018-03-23T03:28:03.305Z,21.00
2018-03-23T03:30:29.344Z,26.20
2018-03-23T03:32:55.400Z,20.03
2018-03-23T03:35:21.435Z,20.00
2018-03-23T03:37:47.401Z,18.70
2018-03-23T03:40:13.473Z,21.67
2018-03-23T03:42:39.492Z,25.40
2018-03-23T03:45:05.524Z,25.97
2018-03-23T03:47:31.546Z,24.43
2018-03-23T03:49:57.542Z,27.30
2018-03-23T03:52:23.532Z,23.60
2018-03-23T03:54:49.548Z,25.70
2018-03-23T03:57:15.628Z,32.93
2018-03-23T03:59:41.663Z,28.40
2018-03-23T04:02:07.627Z,27.17
2018-03-23T04:04:33.641Z,41.33
2018-03-23T04:06:59.664Z,39.87
2018-03-23T04:09:25.723Z,31.07
2018-03-23T04:11:51.726Z,32.53
2018-03-23T04:14:17.775Z,36.60
2018-03-23T04:16:43.800Z,28.17
2018-03-23T04:19:09.872Z,29.67
2018-03-23T04:21:35.952Z,27.50
2018-03-23T04:24:01.952Z,24.03
2018-03-23T04:26:27.969Z,33.10
2018-03-23T04:28:53.961Z,28.97
2018-03-23T04:31:20.080Z,27.23
2018-03-23T04:33:46.093Z,38.10
2018-03-23T04:36:12.128Z,29.07
2018-03-23T04:38:38.137Z,34.83
2018-03-23T04:41:04.184Z,40.60
2018-03-23T04:43:30.246Z,38.70
2018-03-23T04:45:56.297Z,38.90
2018-03-23T04:48:22.396Z,37.60
2018-03-23T04:50:48.402Z,37.23
2018-03-23T04:53:14.429Z,34.77
2018-03-23T04:55:40.532Z,40.10
2018-03-23T04:58:06.518Z,33.77
2018-03-23T05:00:32.513Z,38.20
2018-03-23T05:02:58.541Z,38.50
2018-03-23T05:05:24.575Z,35.33
2018-03-23T05:07:50.923Z,33.50
2018-03-23T05:10:17.049Z,45.43
2018-03-23T05:12:43.062Z,35.03
2018-03-23T05:15:09.146Z,44.60
2018-03-23T05:17:35.190Z,39.53
2018-03-23T05:20:01.593Z,24.87
2018-03-23T05:22:27.577Z,42.60
2018-03-23T05:24:53.629Z,32.93
2018-03-23T05:27:19.643Z,33.67
2018-03-23T05:29:45.673Z,35.90
2018-03-23T05:32:11.731Z,33.70
2018-03-23T05:34:37.753Z,36.60
2018-03-23T05:37:03.772Z,42.07
2018-03-23T05:39:29.841Z,38.57
2018-03-23T05:41:55.797Z,37.03
2018-03-23T05:44:21.848Z,31.77
2018-03-23T05:46:47.885Z,38.60
2018-03-23T05:49:13.885Z,36.50
2018-03-23T05:51:39.894Z,39.33
2018-03-23T05:54:05.927Z,42.07
2018-03-23T05:56:32.785Z,32.33
2018-03-23T05:58:58.808Z,40.43
2018-03-23T06:01:24.965Z,36.73
2018-03-23T06:03:50.954Z,31.43
2018-03-23T06:06:16.974Z,34.63
2018-03-23T06:08:43.073Z,32.90
2018-03-23T06:11:09.076Z,32.70
2018-03-23T06:13:35.249Z,33.77
2018-03-23T06:16:01.321Z,35.20
2018-03-23T06:18:27.430Z,28.70
2018-03-23T06:20:53.439Z,31.10
2018-03-23T06:23:19.515Z,31.17
2018-03-23T06:25:45.518Z,28.70
2018-03-23T06:28:11.569Z,32.73
2018-03-23T06:30:37.594Z,39.73
2018-03-23T06:33:03.630Z,33.83
2018-03-23T06:35:29.779Z,34.70
2018-03-23T06:37:55.806Z,38.53
2018-03-23T06:40:21.858Z,30.97
2018-03-23T06:42:47.797Z,37.57
2018-03-23T06:45:13.872Z,36.10
2018-03-23T06:47:39.878Z,33.37
2018-03-23T06:50:05.886Z,39.57
2018-03-23T06:52:31.946Z,39.93
2018-03-23T06:54:58.009Z,33.17
2018-03-23T06:57:24.042Z,30.93
2018-03-23T06:59:50.057Z,38.07
2018-03-23T07:02:16.066Z,36.20
2018-03-23T07:04:42.066Z,31.17
2018-03-23T07:07:08.075Z,34.97
2018-03-23T07:09:34.088Z,33.53
2018-03-23T07:12:00.106Z,32.30
2018-03-23T07:14:26.154Z,31.80
2018-03-23T07:16:52.157Z,38.23
2018-03-23T07:19:18.270Z,29.63
2018-03-23T07:21:44.353Z,29.47
2018-03-23T07:24:10.380Z,26.10
2018-03-23T07:26:36.392Z,28.87
2018-03-23T07:29:02.530Z,27.77
2018-03-23T07:31:28.538Z,35.27
2018-03-23T07:33:54.594Z,33.00
2018-03-23T07:36:20.603Z,24.67
2018-03-23T07:38:46.622Z,29.57
2018-03-23T07:41:12.656Z,35.97
2018-03-23T07:43:38.783Z,32.43
2018-03-23T07:46:04.810Z,27.23
2018-03-23T07:48:30.837Z,35.33
2018-03-23T07:50:56.878Z,27.53
2018-03-23T07:53:22.917Z,21.03
2018-03-23T07:55:48.926Z,31.40
2018-03-23T07:58:14.896Z,32.27
2018-03-23T08:00:40.954Z,29.80
2018-03-23T08:03:06.926Z,29.33
2018-03-23T08:05:33.276Z,25.90
2018-03-23T08:07:59.281Z,25.40
2018-03-23T08:10:25.316Z,29.47
2018-03-23T08:12:51.350Z,30.37
2018-03-23T08:15:17.397Z,26.07
2018-03-23T08:17:43.701Z,28.53
2018-03-23T08:20:09.773Z,26.10
2018-03-23T08:22:35.789Z,28.80
2018-03-23T08:25:01.794Z,26.60
2018-03-23T08:27:27.806Z,25.13
2018-03-23T08:29:53.924Z,22.53
2018-03-23T08:32:19.930Z,24.60
2018-03-23T08:34:45.886Z,21.83
2018-03-23T08:37:11.822Z,25.13
2018-03-23T08:39:37.955Z,23.23
2018-03-23T08:42:03.949Z,18.57
2018-03-23T08:44:29.973Z,23.87
2018-03-23T08:46:55.969Z,20.77
2018-03-23T08:49:22.021Z,26.60
2018-03-23T08:51:48.123Z,25.57
2018-03-23T08:54:14.180Z,23.73
2018-03-23T08:56:40.202Z,23.43
2018-03-23T08:59:06.272Z,22.93
2018-03-23T09:01:32.310Z,24.73
2018-03-23T09:03:58.432Z,24.20
2018-03-23T09:06:24.422Z,21.30
2018-03-23T09:08:50.469Z,26.30
2018-03-23T09:11:16.565Z,22.70
2018-03-23T09:13:42.614Z,21.90
2018-03-23T09:16:08.656Z,20.97
2018-03-23T09:18:34.653Z,20.13
2018-03-23T09:21:00.722Z,20.80
2018-03-23T09:23:26.729Z,24.77
2018-03-23T09:25:52.741Z,23.70
2018-03-23T09:28:18.773Z,23.47
2018-03-23T09:30:44.838Z,29.20
2018-03-23T09:33:10.849Z,22.27
2018-03-23T09:35:36.885Z,23.50
2018-03-23T09:38:02.841Z,30.23
2018-03-23T09:40:28.918Z,24.07
2018-03-23T09:42:54.934Z,22.53
2018-03-23T09:45:21.004Z,18.87
2018-03-23T09:47:47.015Z,22.73
2018-03-23T09:50:13.067Z,23.90
2018-03-23T09:52:39.070Z,24.83
2018-03-23T09:55:05.090Z,24.37
2018-03-23T09:57:31.099Z,18.73
2018-03-23T09:59:57.130Z,19.43
2018-03-23T10:02:23.226Z,22.47
2018-03-23T10:04:49.289Z,22.53
2018-03-23T10:07:15.326Z,20.50
2018-03-23T10:09:41.298Z,23.20
2018-03-23T10:12:07.417Z,19.03
2018-03-23T10:14:33.428Z,17.87
2018-03-23T10:16:59.568Z,19.63
2018-03-23T10:19:25.586Z,20.83
2018-03-23T10:21:51.615Z,22.40
2018-03-23T10:24:17.782Z,20.23
2018-03-23T10:26:43.842Z,16.60
2018-03-23T10:29:09.911Z,18.40
2018-03-23T10:31:35.948Z,23.03
2018-03-23T10:34:02.045Z,20.90
2018-03-23T10:36:28.102Z,16.73
2018-03-23T10:38:54.181Z,19.07
2018-03-23T10:41:20.199Z,18.70
2018-03-23T10:43:46.245Z,19.60
2018-03-23T10:46:12.334Z,24.37
2018-03-23T10:48:38.385Z,19.40
2018-03-23T10:51:04.485Z,20.17
2018-03-23T10:53:30.581Z,18.80
2018-03-23T10:55:56.706Z,21.33
2018-03-23T10:58:23.260Z,18.90
2018-03-23T11:00:55.343Z,17.37
2018-03-23T11:03:21.353Z,20.80
2018-03-23T11:05:47.431Z,22.37
2018-03-23T11:08:13.466Z,19.97
2018-03-23T11:10:39.504Z,19.70
2018-03-23T11:13:05.507Z,15.27
2018-03-23T11:15:31.510Z,16.93
2018-03-23T11:17:57.533Z,15.40
2018-03-23T11:20:23.544Z,22.77
2018-03-23T11:22:49.674Z,17.70
2018-03-23T11:25:15.694Z,13.23
2018-03-23T11:27:41.694Z,19.53
2018-03-23T11:30:07.769Z,20.47
2018-03-23T11:32:33.897Z,18.10
2018-03-23T11:34:59.921Z,17.80
2018-03-23T11:37:25.973Z,17.30
2018-03-23T11:39:51.989Z,18.00
2018-03-23T11:42:18.025Z,21.80
2018-03-23T11:44:44.331Z,18.03
2018-03-23T11:47:10.316Z,16.97
2018-03-23T11:49:36.479Z,17.13
2018-03-23T11:52:02.510Z,17.90
2018-03-23T11:54:28.573Z,19.43
2018-03-23T11:56:54.727Z,14.10
2018-03-23T11:59:20.750Z,13.70
2018-03-23T12:01:46.832Z,11.20
2018-03-23T12:04:12.793Z,12.83
2018-03-23T12:06:38.886Z,15.97
2018-03-23T12:09:05.082Z,10.33
2018-03-23T12:11:31.144Z,9.97
2018-03-23T12:13:57.205Z,12.70
2018-03-23T12:16:23.180Z,17.53
2018-03-23T12:18:49.209Z,13.90
2018-03-23T12:21:15.254Z,12.27
2018-03-23T12:23:41.290Z,10.83
2018-03-23T12:26:07.466Z,10.83
2018-03-23T12:28:33.569Z,14.40
2018-03-23T12:30:59.667Z,12.77
2018-03-23T12:33:25.765Z,10.93
2018-03-23T12:35:51.787Z,14.27
2018-03-23T12:38:17.809Z,10.07
2018-03-23T12:40:43.818Z,13.70
2018-03-23T12:43:09.822Z,11.30
2018-03-23T12:45:35.931Z,10.40
2018-03-23T12:48:01.996Z,9.43
2018-03-23T12:50:28.045Z,16.00
2018-03-23T12:52:54.054Z,10.00
2018-03-23T12:55:20.073Z,11.90
2018-03-23T12:57:46.187Z,10.83
2018-03-23T13:00:12.393Z,13.17
2018-03-23T13:02:45.375Z,15.53
2018-03-23T13:05:11.440Z,11.67
2018-03-23T13:07:37.648Z,13.10
2018-03-23T13:10:03.770Z,14.40
2018-03-23T13:12:29.805Z,13.80
2018-03-23T13:14:55.869Z,14.83
2018-03-23T13:17:21.877Z,9.93
2018-03-23T13:19:47.918Z,12.17
2018-03-23T13:22:13.930Z,11.50
2018-03-23T13:24:40.013Z,11.00
2018-03-23T13:27:06.049Z,10.60
2018-03-23T13:29:32.090Z,12.43
2018-03-23T13:32:00.403Z,10.00
2018-03-23T13:34:26.977Z,9.77
2018-03-23T13:36:53.302Z,11.37
2018-03-23T13:39:19.386Z,11.47
2018-03-23T13:41:45.414Z,12.57
2018-03-23T13:44:11.483Z,11.13
2018-03-23T13:46:37.520Z,10.33
2018-03-23T13:49:03.559Z,13.50
2018-03-23T13:51:29.690Z,11.67
2018-03-23T13:53:55.899Z,11.83
2018-03-23T13:56:21.894Z,12.00
2018-03-23T13:58:53.957Z,13.90
2018-03-23T14:01:26.104Z,13.57
2018-03-23T14:03:52.161Z,11.00
2018-03-23T14:06:19.624Z,11.87
2018-03-23T14:08:45.646Z,11.40
2018-03-23T14:11:11.794Z,12.83
2018-03-23T14:13:38.161Z,15.70
2018-03-23T14:16:04.166Z,12.80
2018-03-23T14:18:30.167Z,16.47
2018-03-23T14:20:56.242Z,12.87
2018-03-23T14:23:22.322Z,11.20
2018-03-23T14:25:48.250Z,12.27
2018-03-23T14:28:14.347Z,15.33
2018-03-23T14:30:40.310Z,12.60
2018-03-23T14:33:06.312Z,12.37
2018-03-23T14:35:32.336Z,10.13
2018-03-23T14:37:58.383Z,9.33
2018-03-23T14:40:24.409Z,10.53
2018-03-23T14:42:50.491Z,12.77
2018-03-23T14:45:16.546Z,12.23
2018-03-23T14:47:42.579Z,11.03
2018-03-23T14:50:08.608Z,12.10
2018-03-23T14:52:34.747Z,12.20
2018-03-23T14:55:00.781Z,13.17
2018-03-23T14:57:26.780Z,12.83
2018-03-23T14:59:52.835Z,14.40
2018-03-23T15:02:18.914Z,15.53
2018-03-23T15:04:44.961Z,14.10
2018-03-23T15:07:10.999Z,13.30
2018-03-23T15:09:37.037Z,15.33
2018-03-23T15:12:03.042Z,13.20
2018-03-23T15:14:30.145Z,15.70
2018-03-23T15:16:56.230Z,11.63
2018-03-23T15:19:22.252Z,12.67
2018-03-23T15:21:48.326Z,14.23
2018-03-23T15:24:14.364Z,14.30
2018-03-23T15:26:40.358Z,14.10
2018-03-23T15:29:06.403Z,14.37
2018-03-23T15:31:32.402Z,17.00
2018-03-23T15:33:58.501Z,11.83
2018-03-23T15:36:24.521Z,17.40
2018-03-23T15:38:50.887Z,17.27
2018-03-23T15:41:16.894Z,14.07
2018-03-23T15:43:43.035Z,14.87
2018-03-23T15:46:09.132Z,13.13
2018-03-23T15:48:35.094Z,15.83
2018-03-23T15:51:01.172Z,18.10
2018-03-23T15:53:27.129Z,17.07
2018-03-23T15:55:53.581Z,15.57
2018-03-23T15:58:19.635Z,17.93
2018-03-23T16:00:45.706Z,14.00
2018-03-23T16:03:11.703Z,12.90
2018-03-23T16:05:37.741Z,16.20
2018-03-23T16:08:03.763Z,15.87
2018-03-23T16:10:29.803Z,15.87
2018-03-23T16:12:55.865Z,20.10
2018-03-23T16:15:21.959Z,15.60
2018-03-23T16:17:47.982Z,14.83
2018-03-23T16:20:14.006Z,16.80
2018-03-23T16:22:39.958Z,17.73
2018-03-23T16:25:05.958Z,18.23
2018-03-23T16:27:31.993Z,23.10
2018-03-23T16:29:58.040Z,26.53
2018-03-23T16:32:24.113Z,21.43
2018-03-23T16:34:50.094Z,78.63
2018-03-23T16:37:16.199Z,20.97
2018-03-23T16:39:42.169Z,19.93
2018-03-23T16:42:08.172Z,22.97
2018-03-23T16:44:34.210Z,30.03
2018-03-23T16:47:00.221Z,32.27
2018-03-23T16:49:26.254Z,33.10
2018-03-23T16:51:52.300Z,22.53
2018-03-23T16:54:18.302Z,25.40
2018-03-23T16:56:44.402Z,29.80
2018-03-23T16:59:10.425Z,24.10
2018-03-23T17:01:36.441Z,27.93
2018-03-23T17:04:02.498Z,30.17
2018-03-23T17:06:28.485Z,26.03
2018-03-23T17:08:54.492Z,23.93
2018-03-23T17:11:20.533Z,23.13
2018-03-23T17:13:46.541Z,22.80
2018-03-23T17:16:12.517Z,21.03
2018-03-23T17:18:38.638Z,21.17
2018-03-23T17:21:04.666Z,23.87
2018-03-23T17:23:30.680Z,22.70
2018-03-23T17:25:56.746Z,22.37
2018-03-23T17:28:22.770Z,22.97
2018-03-23T17:30:48.769Z,25.80
2018-03-23T17:33:14.818Z,22.90
2018-03-23T17:35:40.837Z,26.10
2018-03-23T17:38:06.902Z,31.03
2018-03-23T17:40:32.897Z,26.10
2018-03-23T17:42:58.985Z,25.17
2018-03-23T17:45:24.989Z,24.80
2018-03-23T17:47:51.009Z,27.70
2018-03-23T17:50:17.003Z,30.90
2018-03-23T17:52:43.018Z,27.87
2018-03-23T17:55:09.089Z,24.53
2018-03-23T17:57:35.056Z,22.93
2018-03-23T18:00:01.170Z,22.03
2018-03-23T18:02:27.377Z,25.53
2018-03-23T18:05:01.047Z,33.37
2018-03-23T18:07:27.023Z,26.97
2018-03-23T18:09:53.036Z,24.40
2018-03-23T18:12:19.071Z,23.87
2018-03-23T18:14:45.065Z,26.37
2018-03-23T18:17:11.109Z,26.07
2018-03-23T18:19:37.125Z,20.13
2018-03-23T18:22:03.152Z,25.33
2018-03-23T18:24:29.159Z,25.50
2018-03-23T18:26:55.159Z,29.40
2018-03-23T18:29:21.200Z,32.17
2018-03-23T18:31:47.221Z,34.23
2018-03-23T18:34:13.197Z,24.80
2018-03-23T18:36:39.207Z,30.07
2018-03-23T18:39:05.222Z,28.50
2018-03-23T18:41:31.261Z,32.63
2018-03-23T18:43:57.303Z,28.37
2018-03-23T18:46:23.312Z,29.00
2018-03-23T18:48:49.390Z,30.00
2018-03-23T18:51:15.460Z,23.57
2018-03-23T18:53:41.497Z,22.83
2018-03-23T18:56:07.607Z,24.13
2018-03-23T18:58:33.564Z,29.20
2018-03-23T19:00:59.704Z,26.93
2018-03-23T19:03:25.685Z,27.07
2018-03-23T19:05:51.764Z,21.83
2018-03-23T19:08:17.774Z,25.93
2018-03-23T19:10:43.790Z,24.40
2018-03-23T19:13:09.878Z,26.00
2018-03-23T19:15:35.981Z,19.93
2018-03-23T19:18:01.940Z,27.33
2018-03-23T19:20:27.966Z,27.97
2018-03-23T19:22:53.986Z,27.70
2018-03-23T19:25:19.986Z,26.00
2018-03-23T19:27:45.962Z,25.63
2018-03-23T19:30:11.996Z,29.83
2018-03-23T19:32:38.022Z,27.83
2018-03-23T19:35:04.063Z,30.93
2018-03-23T19:37:30.093Z,35.37
2018-03-23T19:39:56.150Z,36.10
2018-03-23T19:42:22.191Z,31.17
2018-03-23T19:44:48.246Z,39.93
2018-03-23T19:47:14.266Z,29.67
2018-03-23T19:49:40.976Z,34.77
2018-03-23T19:52:07.004Z,36.90
2018-03-23T19:54:33.057Z,31.20
2018-03-23T19:56:59.039Z,35.47
2018-03-23T19:59:25.018Z,33.40
2018-03-23T20:01:51.097Z,31.97
2018-03-23T20:04:17.106Z,34.67
2018-03-23T20:06:43.133Z,31.17
2018-03-23T20:09:09.146Z,35.83
2018-03-23T20:11:35.166Z,33.07
2018-03-23T20:14:07.250Z,32.73
2018-03-23T20:16:33.349Z,33.93
2018-03-23T20:18:59.370Z,27.87
2018-03-23T20:21:25.413Z,33.30
2018-03-23T20:23:51.452Z,36.53
2018-03-23T20:26:17.477Z,35.63
2018-03-23T20:28:43.691Z,34.23
2018-03-23T20:31:09.897Z,33.10
2018-03-23T20:33:35.945Z,34.07
2018-03-23T20:36:02.012Z,33.23
2018-03-23T20:38:28.071Z,34.77
2018-03-23T20:40:54.051Z,31.73
2018-03-23T20:43:20.098Z,33.93
2018-03-23T20:45:46.155Z,35.00
2018-03-23T20:48:12.238Z,37.80
2018-03-23T20:50:38.258Z,35.17
2018-03-23T20:53:04.297Z,32.77
2018-03-23T20:55:30.344Z,39.30
2018-03-23T20:57:56.360Z,39.40
2018-03-23T21:00:22.417Z,30.67
2018-03-23T21:02:48.473Z,38.30
2018-03-23T21:05:14.441Z,30.30
2018-03-23T21:07:40.450Z,38.90
2018-03-23T21:10:06.492Z,37.47
2018-03-23T21:12:32.598Z,33.33
2018-03-23T21:15:04.566Z,31.77
2018-03-23T21:17:30.544Z,28.40
2018-03-23T21:19:56.588Z,32.73
2018-03-23T21:22:22.707Z,32.60
2018-03-23T21:24:48.877Z,29.70
2018-03-23T21:27:14.957Z,28.03
2018-03-23T21:29:41.837Z,33.77
2018-03-23T21:32:07.912Z,31.67
2018-03-23T21:34:33.946Z,36.90
2018-03-23T21:37:00.017Z,36.70
2018-03-23T21:39:26.131Z,28.00
2018-03-23T21:41:52.149Z,34.40
2018-03-23T21:44:18.152Z,37.80
2018-03-23T21:46:44.238Z,28.73
2018-03-23T21:49:10.237Z,29.60
2018-03-23T21:51:36.299Z,24.90
2018-03-23T21:54:02.689Z,31.33
2018-03-23T21:56:28.757Z,27.43
2018-03-23T21:58:54.875Z,29.80
2018-03-23T22:01:20.966Z,26.77
2018-03-23T22:03:47.039Z,27.80
2018-03-23T22:06:13.072Z,33.00
2018-03-23T22:08:39.094Z,21.93
2018-03-23T22:11:05.093Z,28.43
2018-03-23T22:13:31.117Z,26.33
2018-03-23T22:15:57.249Z,22.00
2018-03-23T22:18:23.303Z,30.10
2018-03-23T22:20:49.277Z,23.67
2018-03-23T22:23:15.326Z,21.90
2018-03-23T22:25:41.431Z,29.97
2018-03-23T22:28:08.254Z,29.13
2018-03-23T22:30:35.139Z,26.93
2018-03-23T22:33:01.194Z,28.03
2018-03-23T22:35:27.145Z,30.93
2018-03-23T22:37:53.221Z,24.47
2018-03-23T22:40:19.289Z,30.93
2018-03-23T22:42:45.309Z,31.03
2018-03-23T22:45:11.401Z,31.47
2018-03-23T22:47:37.457Z,28.13
2018-03-23T22:50:03.501Z,31.13
2018-03-23T22:52:29.504Z,30.83
2018-03-23T22:54:55.537Z,32.63
2018-03-23T22:57:21.541Z,33.93
2018-03-23T22:59:47.569Z,35.57
2018-03-23T23:02:13.715Z,29.00
2018-03-23T23:04:39.708Z,31.73
2018-03-23T23:07:05.747Z,34.67
2018-03-23T23:09:31.792Z,40.30
2018-03-23T23:11:57.806Z,33.60
2018-03-23T23:14:23.805Z,33.87
2018-03-23T23:16:49.809Z,31.50
2018-03-23T23:19:15.832Z,41.67
2018-03-23T23:21:42.200Z,32.37
2018-03-23T23:24:08.254Z,33.73
2018-03-23T23:26:34.294Z,35.80
2018-03-23T23:29:01.241Z,30.80
2018-03-23T23:31:27.197Z,28.20
2018-03-23T23:33:53.229Z,34.90
2018-03-23T23:36:19.230Z,32.93
2018-03-23T23:38:45.265Z,36.70
2018-03-23T23:41:11.253Z,30.03
2018-03-23T23:43:37.270Z,31.73
2018-03-23T23:46:03.282Z,31.17
2018-03-23T23:48:29.339Z,33.80
2018-03-23T23:50:55.277Z,29.33
2018-03-23T23:53:21.317Z,29.10
2018-03-23T23:55:47.349Z,36.13
2018-03-23T23:58:13.361Z,34.73
